Lenox Township, Michigan
Current Conditions -  °F | °C
As of 10:55 AM on Thursday 23 Oct 2014 (Local Time) from KMTC Reporting Station
Few Clouds Few Clouds  
Wind Chill: 46°   Ceiling: Unl
Heat Index: 48°   Visibility: 12mi
Dew Point: 42°   Wind: 5mph
Humidity: 80%   Direction: NA
Pressure: 30.21"   Gusts: NA
Location:  42.7851°N, 82.803°W
Report Text: KMTC 231455Z VRB04KT 12SM FEW220 09/05 A3021 RMK SLP245 T00870054 50002
Loading
Personal Weather Stations






























Interactive Weather Map
Tropical Storm Tracking
New forecast layout! Learn more

10-Day Weather Forecast

Advertisements
Track Severe Weather on mobile